Wind From: 11-12-2017 10:04 Until: 12-12-2017 06:00 warning for: Wind Level: Orange info button

Power and phone distribution networks may be disrupted for relatively long periods., Roofs and chimneys can be damaged. , Tree branches may break. , Vehicles can be deported. , Traffic may be disrupted, particularly on secondary roads in forest areas. Limit your trips. , Limit your speed in highway driving, especially if you drive a vehicle or hitch sensitive to wind. , Do not go for walks in forests or along the coast., In town, be vigilant against possible falling objects., Do not work on roofs and do not touch any electrical line fallen on the ground., Store or secure sensitive objects to wind or likely to be damaged., Always install power generators outside buildings. 


Meteo18 Weather Cam more information Meteo18 Weather Cam


Thunder radar more information blitzortung!


Rain radar more information rain snow radar


Visit our other weather sites:

Template documentation
and downloads

And another site



Weather Underground History page Text

Daily Summary for November 23, 2017 Units:  English    Metric   Both
« Previous Day
Next Day »
Daily Weekly Monthly Yearly Custom
  High: Low: Average:
Temperature: 62.1 °F 45.5 °F 52.7 °F
Dew Point: 48.9 °F 41 °F 45 °F
Humidity: 86 % 60 % 75 %
Wind Speed: 17 mph 0 mph 4.5 mph
Wind Gust: 24 mph - -
Wind:- - SW
Pressure: 30 in 29.7 in -
Precipitation: 0 in    
Historical Graphs
 
 
Tabular Data for November 23, 2017
Time Temperature Dew Point Pressure Wind Wind Speed Wind Gust Humidity Rainfall Rate (Hourly)
00:12 45.7 °F 41.2 °F 29.8 in Calm   2 mph 84 % 0 in
00:17 45.5 °F 41 °F 29.8 in Calm   2 mph 84 % 0 in
00:32 45.7 °F 41.4 °F 29.7 in SSW 2 mph 3 mph 85 % 0 in
00:42 45.5 °F 41.2 °F 29.7 in SSW 2 mph 3 mph 85 % 0 in
00:47 45.7 °F 41.4 °F 29.7 in SSW 2 mph 3 mph 85 % 0 in
01:07 45.5 °F 41.5 °F 29.7 in SW 3 mph 4 mph 86 % 0 in
01:12 45.7 °F 41.7 °F 29.7 in SSW 4 mph 4 mph 86 % 0 in
01:22 45.9 °F 41.5 °F 29.7 in South 2 mph 4 mph 85 % 0 in
01:32 46 °F 41.7 °F 29.7 in SW 3 mph 4 mph 85 % 0 in
01:37 46 °F 41.7 °F 29.7 in SW 3 mph 3 mph 85 % 0 in
01:42 46.2 °F 41.9 °F 29.7 in SSW 1 mph 4 mph 85 % 0 in
01:47 46.2 °F 41.7 °F 29.7 in South 1 mph 4 mph 84 % 0 in
01:57 46.6 °F 42.1 °F 29.7 in South 1 mph 4 mph 84 % 0 in
02:02 46.6 °F 42.1 °F 29.7 in SW 1 mph 4 mph 84 % 0 in
02:12 46.6 °F 41.7 °F 29.7 in Calm   2 mph 83 % 0 in
02:17 46.4 °F 41.5 °F 29.7 in Calm   2 mph 83 % 0 in
02:22 46.4 °F 41.5 °F 29.7 in West 1 mph 2 mph 83 % 0 in
02:32 46.9 °F 41.7 °F 29.7 in Calm   2 mph 82 % 0 in
02:42 47.1 °F 41.5 °F 29.7 in WSW 1 mph 5 mph 81 % 0 in
02:47 47.1 °F 41.5 °F 29.7 in WSW 1 mph 5 mph 81 % 0 in
02:57 47.5 °F 41.5 °F 29.7 in West 1 mph 4 mph 80 % 0 in
03:02 47.7 °F 41.7 °F 29.7 in SW 1 mph 2 mph 80 % 0 in
03:07 47.7 °F 41.7 °F 29.7 in West 2 mph 2 mph 80 % 0 in
03:12 47.8 °F 41.7 °F 29.7 in Calm   3 mph 79 % 0 in
03:22 48.2 °F 41.7 °F 29.7 in West 1 mph 3 mph 78 % 0 in
03:27 48.6 °F 41.7 °F 29.7 in WNW 1 mph 2 mph 77 % 0 in
03:32 48.4 °F 41.5 °F 29.7 in NW 1 mph 2 mph 77 % 0 in
03:37 48.4 °F 41.5 °F 29.7 in Calm   2 mph 77 % 0 in
03:47 48.4 °F 41.5 °F 29.7 in West 1 mph 2 mph 77 % 0 in
03:52 48.4 °F 41.5 °F 29.7 in Calm   2 mph 77 % 0 in
03:57 48.7 °F 41.9 °F 29.7 in Calm   2 mph 77 % 0 in
04:22 48.7 °F 41.9 °F 29.7 in SW 2 mph 3 mph 77 % 0 in
04:32 48.7 °F 41.5 °F 29.7 in SSW 4 mph 5 mph 76 % 0 in
04:37 48.9 °F 41.7 °F 29.7 in SW 3 mph 5 mph 76 % 0 in
04:42 48.9 °F 42.1 °F 29.7 in SSW 6 mph 6 mph 77 % 0 in
04:52 47.8 °F 41.4 °F 29.7 in SSW 1 mph 6 mph 78 % 0 in
04:57 47.5 °F 41.5 °F 29.7 in SSW 3 mph 7 mph 80 % 0 in
05:02 47.7 °F 41.7 °F 29.7 in South 4 mph 7 mph 80 % 0 in
05:07 47.7 °F 41.5 °F 29.7 in SSW 3 mph 5 mph 79 % 0 in
05:12 47.5 °F 41.5 °F 29.7 in SSW 3 mph 5 mph 80 % 0 in
05:17 47.1 °F 41.5 °F 29.7 in SSW 3 mph 5 mph 81 % 0 in
05:22 47.5 °F 41.9 °F 29.7 in SSW 5 mph 6 mph 81 % 0 in
05:32 47.5 °F 41.9 °F 29.7 in SSW 3 mph 7 mph 81 % 0 in
05:42 48 °F 42.1 °F 29.7 in SSW 4 mph 6 mph 80 % 0 in
06:02 50.5 °F 42.6 °F 29.7 in SSW 9 mph 11 mph 74 % 0 in
06:12 50.5 °F 42.6 °F 29.7 in SW 5 mph 11 mph 74 % 0 in
06:17 50.5 °F 43 °F 29.8 in WSW 5 mph 10 mph 75 % 0 in
06:22 50.5 °F 43 °F 29.7 in SW 5 mph 10 mph 75 % 0 in
06:32 50.5 °F 43 °F 29.8 in SW 7 mph 8 mph 75 % 0 in
06:37 50.4 °F 43.2 °F 29.8 in SW 6 mph 10 mph 76 % 0 in
06:42 50.4 °F 43.2 °F 29.8 in SSW 6 mph 10 mph 76 % 0 in
06:47 50.5 °F 43.3 °F 29.8 in SW 6 mph 9 mph 76 % 0 in
06:52 50.4 °F 43.2 °F 29.8 in SW 4 mph 9 mph 76 % 0 in
07:02 50.5 °F 43.3 °F 29.8 in SSW 3 mph 8 mph 76 % 0 in
07:12 50.5 °F 43.3 °F 29.8 in SSW 4 mph 8 mph 76 % 0 in
07:22 50.4 °F 43.2 °F 29.8 in SSW 7 mph 9 mph 76 % 0 in
07:42 51.4 °F 43.5 °F 29.8 in SW 7 mph 11 mph 74 % 0 in
07:47 51.3 °F 43.3 °F 29.8 in SW 5 mph 11 mph 74 % 0 in
07:57 51.3 °F 43.3 °F 29.8 in SW 7 mph 10 mph 74 % 0 in
08:02 51.6 °F 43.5 °F 29.8 in SW 6 mph 10 mph 74 % 0 in
08:12 51.3 °F 43 °F 29.8 in SSW 6 mph 11 mph 73 % 0 in
08:17 50.4 °F 42.8 °F 29.8 in SSW 6 mph 11 mph 75 % 0 in
08:22 49.6 °F 42.8 °F 29.8 in SW 8 mph 11 mph 77 % 0 in
08:32 50 °F 43.2 °F 29.8 in SW 7 mph 10 mph 77 % 0 in
08:42 50.5 °F 43.3 °F 29.8 in SW 7 mph 9 mph 76 % 0 in
08:52 50.5 °F 43.3 °F 29.8 in SSW 6 mph 10 mph 76 % 0 in
09:02 50.4 °F 43.3 °F 29.8 in SSW 7 mph 10 mph 77 % 0 in
09:12 51.1 °F 44.1 °F 29.8 in South 2 mph 9 mph 77 % 0 in
09:17 51.6 °F 44.2 °F 29.8 in SSW 4 mph 9 mph 76 % 0 in
09:22 51.6 °F 44.6 °F 29.8 in SSE 2 mph 8 mph 77 % 0 in
09:32 52 °F 44.6 °F 29.8 in SSE 1 mph 7 mph 76 % 0 in
09:37 52.2 °F 44.8 °F 29.8 in SSW 3 mph 6 mph 76 % 0 in
09:42 52.3 °F 45 °F 29.8 in SW 2 mph 6 mph 76 % 0 in
09:52 52.5 °F 45.1 °F 29.8 in SSW 4 mph 4 mph 76 % 0 in
09:57 52.7 °F 45 °F 29.8 in SSW 5 mph 7 mph 75 % 0 in
10:02 53.1 °F 45 °F 29.8 in South 6 mph 7 mph 74 % 0 in
10:07 52.9 °F 45.1 °F 29.8 in SW 8 mph 8 mph 75 % 0 in
10:12 52.9 °F 45.1 °F 29.8 in SSW 5 mph 8 mph 75 % 0 in
10:17 53.4 °F 45.7 °F 29.9 in SW 4 mph 9 mph 75 % 0 in
10:22 53.8 °F 45.7 °F 29.9 in SW 5 mph 9 mph 74 % 0 in
10:32 54.3 °F 46.6 °F 29.9 in SSW 3 mph 8 mph 75 % 0 in
10:47 54.3 °F 46.6 °F 29.9 in SSW 5 mph 6 mph 75 % 0 in
10:52 54.7 °F 46.9 °F 29.9 in SSW 7 mph 7 mph 75 % 0 in
11:02 55.2 °F 47.1 °F 29.9 in SSW 8 mph 10 mph 74 % 0 in
11:12 55.8 °F 47.7 °F 29.9 in SSW 5 mph 12 mph 74 % 0 in
11:22 57.2 °F 47.8 °F 29.9 in SSW 3 mph 11 mph 71 % 0 in
11:32 58.6 °F 48.6 °F 29.9 in SW 10 mph 10 mph 69 % 0 in
11:42 59.5 °F 48.9 °F 29.9 in SW 11 mph 15 mph 68 % 0 in
12:17 61.9 °F 48.7 °F 29.9 in SW 13 mph 20 mph 62 % 0 in
12:22 62.1 °F 48.4 °F 29.9 in SW 17 mph 20 mph 61 % 0 in
12:32 62.1 °F 48.9 °F 29.9 in SW 11 mph 23 mph 62 % 0 in
12:42 61.5 °F 48.7 °F 29.9 in SW 13 mph 24 mph 63 % 0 in
12:47 61.2 °F 48.4 °F 29.9 in SW 9 mph 21 mph 63 % 0 in
12:57 60.3 °F 48 °F 29.9 in SW 9 mph 21 mph 64 % 0 in
13:02 60.4 °F 48.2 °F 29.9 in West 13 mph 21 mph 64 % 0 in
13:12 60.4 °F 46.9 °F 29.9 in SW 15 mph 19 mph 61 % 0 in
13:17 61 °F 46.9 °F 29.9 in WSW 10 mph 17 mph 60 % 0 in
13:32 60.6 °F 46.6 °F 29.9 in SW 11 mph 20 mph 60 % 0 in
13:52 61.3 °F 47.3 °F 29.9 in WSW 13 mph 17 mph 60 % 0 in
14:02 61.3 °F 47.3 °F 29.9 in SSW 8 mph 19 mph 60 % 0 in
14:32 61.2 °F 47.7 °F 29.9 in West 10 mph 21 mph 61 % 0 in
14:42 61.3 °F 47.8 °F 29.9 in SW 11 mph 21 mph 61 % 0 in
14:57 61.5 °F 48 °F 29.9 in SW 9 mph 19 mph 61 % 0 in
15:12 61.5 °F 48 °F 29.9 in SW 8 mph 17 mph 61 % 0 in
15:17 61.5 °F 48.4 °F 29.9 in SW 10 mph 16 mph 62 % 0 in
15:22 61.5 °F 48 °F 29.9 in SW 6 mph 16 mph 61 % 0 in
15:42 60.4 °F 48.2 °F 29.9 in SSW 8 mph 17 mph 64 % 0 in
15:52 59.7 °F 48 °F 29.9 in SW 4 mph 13 mph 65 % 0 in
15:57 59.7 °F 48 °F 29.9 in SSW 7 mph 13 mph 65 % 0 in
16:02 60.1 °F 48.2 °F 29.9 in SSW 6 mph 13 mph 65 % 0 in
16:07 60.1 °F 48.7 °F 29.9 in SSW 6 mph 15 mph 66 % 0 in
16:12 59.7 °F 48.7 °F 29.9 in SSW 4 mph 15 mph 67 % 0 in
16:17 59.5 °F 48.6 °F 29.9 in SW 5 mph 11 mph 67 % 0 in
16:22 59.7 °F 48.4 °F 29.9 in SSW 5 mph 11 mph 66 % 0 in
16:27 59.5 °F 48.6 °F 29.9 in SSW 3 mph 11 mph 67 % 0 in
16:37 58.3 °F 48.2 °F 29.9 in SSW 3 mph 8 mph 69 % 0 in
16:42 58.3 °F 48.6 °F 29.9 in SSW 4 mph 7 mph 70 % 0 in
16:52 57.6 °F 47.8 °F 29.9 in SSW 5 mph 7 mph 70 % 0 in
16:57 56.8 °F 47.5 °F 29.9 in SW 4 mph 7 mph 71 % 0 in
17:12 55.9 °F 47.1 °F 29.9 in SW 6 mph 7 mph 72 % 0 in
17:17 55.9 °F 47.1 °F 29.9 in SW 5 mph 8 mph 72 % 0 in
17:22 56.1 °F 46.8 °F 29.9 in SSW 5 mph 9 mph 71 % 0 in
17:32 55.6 °F 47.1 °F 29.9 in SSW 6 mph 9 mph 73 % 0 in
17:52 54.7 °F 46.9 °F 29.9 in SSW 4 mph 8 mph 75 % 0 in
17:57 54.5 °F 46.8 °F 29.9 in SSW 5 mph 8 mph 75 % 0 in
18:02 54.3 °F 46.6 °F 29.9 in SSW 4 mph 8 mph 75 % 0 in
18:07 54.3 °F 46.6 °F 29.9 in SW 7 mph 8 mph 75 % 0 in
18:17 54.5 °F 46.8 °F 29.9 in SSW 5 mph 8 mph 75 % 0 in
18:22 54.7 °F 46.6 °F 29.9 in SSW 3 mph 8 mph 74 % 0 in
18:27 54.7 °F 46.6 °F 29.9 in SW 5 mph 8 mph 74 % 0 in
18:42 54.7 °F 46.9 °F 29.9 in SW 4 mph 7 mph 75 % 0 in
18:52 54.9 °F 46.8 °F 29.9 in SW 5 mph 7 mph 74 % 0 in
18:57 54.7 °F 46.6 °F 29.9 in SW 3 mph 7 mph 74 % 0 in
19:07 54.3 °F 46.6 °F 29.9 in SW 4 mph 6 mph 75 % 0 in
19:12 54.1 °F 46.4 °F 29.9 in SW 4 mph 5 mph 75 % 0 in
19:17 54.1 °F 46.4 °F 29.9 in SW 3 mph 5 mph 75 % 0 in
19:22 54.3 °F 46.6 °F 29.9 in SW 3 mph 6 mph 75 % 0 in
19:32 54.3 °F 46.6 °F 29.9 in SW 2 mph 6 mph 75 % 0 in
19:42 54.1 °F 46.4 °F 29.9 in SSW 3 mph 6 mph 75 % 0 in
19:47 54.1 °F 46.4 °F 29.9 in SW 4 mph 6 mph 75 % 0 in
19:52 54.1 °F 46.4 °F 29.9 in SW 3 mph 6 mph 75 % 0 in
20:02 54 °F 46.6 °F 29.9 in SSW 5 mph 7 mph 76 % 0 in
20:07 54 °F 46.6 °F 29.9 in SW 5 mph 7 mph 76 % 0 in
20:12 53.8 °F 46.4 °F 29.9 in SW 3 mph 7 mph 76 % 0 in
20:27 53.2 °F 46.2 °F 29.9 in SW 4 mph 7 mph 77 % 0 in
20:32 53.2 °F 46.2 °F 29.9 in SSW 4 mph 7 mph 77 % 0 in
20:42 53.6 °F 46.6 °F 29.9 in SW 8 mph 8 mph 77 % 0 in
20:52 54 °F 46.6 °F 29.9 in SW 4 mph 8 mph 76 % 0 in
21:02 54 °F 46.9 °F 29.9 in SSW 5 mph 8 mph 77 % 0 in
21:07 54 °F 46.9 °F 29.9 in SSW 5 mph 7 mph 77 % 0 in
21:17 53.8 °F 46.8 °F 29.9 in SW 5 mph 8 mph 77 % 0 in
21:22 53.4 °F 46.4 °F 29.9 in South 4 mph 8 mph 77 % 0 in
21:37 52 °F 46 °F 30 in SSW 2 mph 6 mph 80 % 0 in
22:02 51.4 °F 45.5 °F 30 in SSW 4 mph 6 mph 80 % 0 in
22:17 50.9 °F 45.3 °F 29.9 in SSW 3 mph 6 mph 81 % 0 in
22:27 50.9 °F 45.3 °F 29.9 in SSW 3 mph 4 mph 81 % 0 in
22:32 50.9 °F 45.3 °F 29.9 in SSW 3 mph 4 mph 81 % 0 in
22:37 51.1 °F 45.5 °F 30 in SSW 3 mph 4 mph 81 % 0 in
22:42 51.1 °F 45.5 °F 30 in SSW 3 mph 4 mph 81 % 0 in
23:02 50.9 °F 45.3 °F 30 in SSW 2 mph 3 mph 81 % 0 in
23:07 50.7 °F 45.1 °F 30 in SSW 1 mph 2 mph 81 % 0 in
23:12 50.5 °F 45.3 °F 30 in SSW 2 mph 2 mph 82 % 0 in
23:22 50.7 °F 45.5 °F 30 in SSW 2 mph 2 mph 82 % 0 in
23:32 50.9 °F 45.3 °F 30 in SSW 1 mph 2 mph 81 % 0 in
23:42 50.9 °F 45.3 °F 30 in SW 2 mph 2 mph 81 % 0 in
23:47 51.3 °F 45.7 °F 30 in SW 3 mph 3 mph 81 % 0 in
23:52 51.6 °F 45.7 °F 29.9 in South 1 mph 3 mph 80 % 0 in
Meteo18
Compliments of Weather Underground - 4 mb

Script developed by  Jim McMurry - jmcmurry@mwt.net Adapted for the template by  Wim van der Kuil - Leuven-Template.eu

You find our weather info also at:

European Weather Network

Weather Underground

Equipment we use:

Weather-station
Davis Vue

Weather-program
Meteohub

Weather-server
Raspberry PI 2 B+

Provider
1 and 1

Davis Vue

Meteohub

Raspberry PI 2 B+

1 and 1